CAMPIONATI ITALIANI MASTER
di Corsa in Montagna - Piancavallo 24 giugno 2018
Organizzazione: A.S.D. ATLETICA AVIANO - PIANCAVALLO (PN)
CiM Camp. Italiano Master Maschili 35-55 - RISULTATI24/06 - 16:09
SERIE - RISULTATI
Serie UnicaImpianto Campestre/Strada - 24 Giugno 2018 Ora Inizio: 10:45 - Ora Fine: 12:35 
Clas.Pett.AtletaAnnoCat.SocietÓPrestazione
1293BORGHESI Gianluca1978SM40BO023 ATL. AVIS CASTEL S.PIETRO52:22
2309ANTONINI Giuseppe1971SM45BS562 ATL. PARATICO53:47
3327FERRARI Marco1975SM40BS562 ATL. PARATICO54:16
4304BOSIO Danilo1972SM45BS304 ATL. DI LUMEZZANE C.S.P.54:32
5289FREGONA Lucio1964SM50BL041 A.S.D. GRUPPO SPORTIVO ASTRA54:37
6299PALOMBO Saturnino1980SM35BO023 ATL. AVIS CASTEL S.PIETRO54:41
7291BENINI Luca1983SM35BO023 ATL. AVIS CASTEL S.PIETRO54:48
8324DEL MORO Claudio1974SM40BS562 ATL. PARATICO54:51
9344GUERRUCCI Marco1979SM35LU103 G.S. ORECCHIELLA GARFAGNANA55:03
10428LYAZALI Adil1977SM40PR436 CIRCOLO MINERVA ASD55:19
11340TORRESANI Franco1962SM55BS562 ATL. PARATICO55:37
12497DA PRA Olivo1974SM40BL017 G.S.VV.FF.-DE VECCHI-BL55:55
13319BRESSANELLI Ivan1969SM45BS562 ATL. PARATICO56:37
14310BADINI Cristian1971SM45BS562 ATL. PARATICO56:50
15362DA SOLLER Fabio1973SM45PN500 G. P. LIVENZA SACILE57:20
16297MONTERUCCIOLI Flavio1972SM45BO023 ATL. AVIS CASTEL S.PIETRO57:28
17284BORTOLUZZI Luigi1961SM55BL010 A.ATL.DOLOMITI BELLUNO57:36
18438MELONI Carlo1965SM50TN103 ATLETICA CLARINA TRENTINO57:42
19477ZANELLA Simone1975SM40TV343 ATL.VALDOBBIADENE G.S.A.57:53
20294CAVALLI Claudio1973SM45BO023 ATL. AVIS CASTEL S.PIETRO58:03
21342CAMPITELLI Camillo1962SM55CH175 ASD MISTERCAMP CASTELFRENTANO58:13
22429MARRANGONE Emanuel1972SM45PR436 CIRCOLO MINERVA ASD58:28
23343AMBROSIO Vincenzo Franc1966SM50CN004 A.S.D.DRAGONERO58:37
24317BONTEMPI Filippo1964SM50BS562 ATL. PARATICO58:59
25318BRESCIANI Giorgio1966SM50BS562 ATL. PARATICO59:22
26306TOMASONI Paolo1963SM55BS304 ATL. DI LUMEZZANE C.S.P.59:31
27330GLASA Andrej1975SM40BS562 ATL. PARATICO59:42
28301ZANINI Marco1971SM45BO023 ATL. AVIS CASTEL S.PIETRO59:49
29347DE BIASIO Max1977SM40PN005 POLISPORTIVA MONTEREALE59:52
30315BERTONI Massimo1974SM40BS562 ATL. PARATICO59:54
31412RONCHI Erwin1977SM40PN528 ATLETICA EDILMARKET SANDRIN1h00:01
32471NFAFTA Hamid1969SM45TV343 ATL.VALDOBBIADENE G.S.A.1h00:19
33331GRISMONDI Giacomo1981SM35BS562 ATL. PARATICO1h00:21
34336PREMOLI Marco1966SM50BS562 ATL. PARATICO1h00:29
35480CHIESURIN Thierry1965SM50TV393 ATLETICA S. LUCIA DI PIAVE1h00:34
36440VAIA Carlo1964SM50TN113 U.S.D. CERMIS1h00:38
37333MARROCCOLI Marcellino1969SM45BS562 ATL. PARATICO1h00:40
38472POLONI Gustavo1961SM55TV343 ATL.VALDOBBIADENE G.S.A.1h01:11
39411PESSA Loris1974SM40PN528 ATLETICA EDILMARKET SANDRIN1h01:12
40446IANCER Riccardo1965SM50TS547 MIRAMAR1h01:18
41312BARBO' Giovanni1970SM45BS562 ATL. PARATICO1h01:19
42459FURLAN Cristian1972SM45TV343 ATL.VALDOBBIADENE G.S.A.1h01:28
43376MARCHESE Loris1968SM50PN522 PODISTI CORDENONS1h01:47
44341ZANINI Marco1978SM40BS562 ATL. PARATICO1h01:51
45363DALLA TORRE Guido1966SM50PN500 G. P. LIVENZA SACILE1h02:15
46462GATTO Denis1972SM45TV343 ATL.VALDOBBIADENE G.S.A.1h02:48
47481MAZZER Giorgio1962SM55TV393 ATLETICA S. LUCIA DI PIAVE1h03:00
48283DE CONTI Gianni1959SM55BL005 ATL. TRICHIANA1h03:07
49432MORI Emilio1979SM35PR436 CIRCOLO MINERVA ASD1h03:23
50400BALDO Michele1964SM50PN528 ATLETICA EDILMARKET SANDRIN1h03:25
51487MIDENA Roberto1966SM50UD516 MARATONA MAGNANO1h03:31
52454BRESSAN Alberto1972SM45TV343 ATL.VALDOBBIADENE G.S.A.1h03:47
53354TRAMONTINA Giovanni1982SM35PN005 POLISPORTIVA MONTEREALE1h04:02
54437ODORIZZI Michele1962SM55TN102 ATL. VALLI DI NON E SOLE1h04:11
55334PASINETTI Marco1968SM50BS562 ATL. PARATICO1h04:19
56415CERRATO Francesco1977SM40PN534 ATL. LEONE SAN MARCO PORDENONE1h04:25
57475VIAN Giuseppe1964SM50TV343 ATL.VALDOBBIADENE G.S.A.1h04:33
58484CORTOLEZZIS Fabrizio1968SM50UD065 POLISPORTIVA TIMAUCLEULIS1h04:34
59451BOLLETTA Claudio1966SM50TV343 ATL.VALDOBBIADENE G.S.A.1h04:37
60431MENGHINI Franco1973SM45PR436 CIRCOLO MINERVA ASD1h04:39
61296FERRUZZI Lorenzo1972SM45BO023 ATL. AVIS CASTEL S.PIETRO1h04:46
62447DE LORENZI Angelo1980SM35TV340 ATLETICA VILLORBA1h05:03
63322CEDRI Ivan1975SM40BS562 ATL. PARATICO1h05:06
64413TOFFOLON Massimiliano1972SM45PN528 ATLETICA EDILMARKET SANDRIN1h05:22
65458FONTANA Mauro1973SM45TV343 ATL.VALDOBBIADENE G.S.A.1h05:24
66345POCAI Emo1961SM55LU103 G.S. ORECCHIELLA GARFAGNANA1h05:34
67316BINOTTO Ugo1977SM40BS562 ATL. PARATICO1h05:36
68434SNAIDERBAUR Corrado1970SM45PR436 CIRCOLO MINERVA ASD1h05:40
69313BARONI Giovanni1970SM45BS562 ATL. PARATICO1h05:54
70364GAVA Danilo1961SM55PN500 G. P. LIVENZA SACILE1h06:09
71368CODEN Danilo1961SM55PN502 ATL. SAN MARTINO COOP CASARSA1h06:14
72285DA RIN ZANCO Enzo1963SM55BL010 A.ATL.DOLOMITI BELLUNO1h06:18
73292BIONDINI Maurizio1967SM50BO023 ATL. AVIS CASTEL S.PIETRO1h06:31
74433ROSI Andrea1967SM50PR436 CIRCOLO MINERVA ASD1h06:50
75465MENIN Andrea1970SM45TV343 ATL.VALDOBBIADENE G.S.A.1h06:55
76441ANDREIS Giuseppe1968SM50TN500 ATLETICA VALLE DI CEMBRA1h06:59
77307ALLIEVI Omar1974SM40BS562 ATL. PARATICO1h07:03
78332LANCINI Claudio1966SM50BS562 ATL. PARATICO1h07:15
79287D'AGOSTINI Sandro1964SM50BL021 GIRO DELLE MURA CITTA FELTRE1h07:16
80320CALDARA Claudio1962SM55BS562 ATL. PARATICO1h07:23
81373TREVISIOL Paolo1969SM45PN502 ATL. SAN MARTINO COOP CASARSA1h07:29
82466MIOTTO Ilario1975SM40TV343 ATL.VALDOBBIADENE G.S.A.1h07:36
83461FUSON Gabriele1962SM55TV343 ATL.VALDOBBIADENE G.S.A.1h07:56
84420VALLAR Franco1964SM50PN534 ATL. LEONE SAN MARCO PORDENONE1h07:58
85352ROMANELLI Ivo1976SM40PN005 POLISPORTIVA MONTEREALE1h08:00
86378MASCHERIN Diego1974SM40PN522 PODISTI CORDENONS1h08:06
87335PLEBANI Osvaldo1969SM45BS562 ATL. PARATICO1h08:11
88485PERUZZO Fulvio1966SM50UD066 UNIONE SPORTIVA ALDO MORO1h08:23
89470NADAI Cristian1970SM45TV343 ATL.VALDOBBIADENE G.S.A.1h08:24
90455BUSETTI Giuseppe1963SM55TV343 ATL.VALDOBBIADENE G.S.A.1h08:33
91419PUPAZA Ciprian1981SM35PN534 ATL. LEONE SAN MARCO PORDENONE1h08:34
92298MORGANTI Pierangelo1974SM40BO023 ATL. AVIS CASTEL S.PIETRO1h08:40
93388CAVALLI Gionni1969SM45PN527 ATLETICA AVIANO1h08:44
94449BIANCHIN Mirco1968SM50TV343 ATL.VALDOBBIADENE G.S.A.1h08:45
95372PETRIS Gianni1968SM50PN502 ATL. SAN MARTINO COOP CASARSA1h08:52
96357ONORI Massimo1974SM40PN028 POL. LIBERTAS PORCIA1h08:54
97457FOLLADOR Emanuele1977SM40TV343 ATL.VALDOBBIADENE G.S.A.1h08:54
98407FRANCO Daniele1977SM40PN528 ATLETICA EDILMARKET SANDRIN1h08:57
99476ZANELLA Cristiano1970SM45TV343 ATL.VALDOBBIADENE G.S.A.1h08:58
100417MIGLIOZZI Stefano1964SM50PN534 ATL. LEONE SAN MARCO PORDENONE1h09:00
101358ZANOLIN Massimo1969SM45PN028 POL. LIBERTAS PORCIA1h09:01
102456FOLEY Liam Oliver1974SM40TV343 ATL.VALDOBBIADENE G.S.A.1h09:04
103426LA MONACA Paolo Frances1982SM35PR436 CIRCOLO MINERVA ASD1h09:11
104377MARTIN Claudio1959SM55PN522 PODISTI CORDENONS1h09:11
105360ZECCHIN Pietro1962SM55PN039 ATL BRUGNERA PN FRIULINTAGLI1h09:24
106321CAROLI Gianluca1966SM50BS562 ATL. PARATICO1h09:44
107381BERTOLO Matteo1974SM40PN525 AZZANO RUNNERS1h09:44
108444STONFER Daniele1982SM35TN500 ATLETICA VALLE DI CEMBRA1h09:58
109403BONACITI Alessandro1975SM40PN528 ATLETICA EDILMARKET SANDRIN1h10:05
110329FRETI Mauro1979SM35BS562 ATL. PARATICO1h10:11
111473POSSAMAI Andrea1967SM50TV343 ATL.VALDOBBIADENE G.S.A.1h10:14
112348MAGLIARETTA Maurizio1964SM50PN005 POLISPORTIVA MONTEREALE1h10:19
113389CESCA Stefano1971SM45PN527 ATLETICA AVIANO1h10:20
114416GELIDO Luigi1980SM35PN534 ATL. LEONE SAN MARCO PORDENONE1h10:28
115323CUNEGATTI Cornelio1967SM50BS562 ATL. PARATICO1h10:31
116442MIORI Andrea1967SM50TN500 ATLETICA VALLE DI CEMBRA1h10:32
117300VENTURA Ivan1973SM45BO023 ATL. AVIS CASTEL S.PIETRO1h10:35
118482SILLICCHIA Paolo1968SM50TV393 ATLETICA S. LUCIA DI PIAVE1h10:55
119422BECCI Matteo1975SM40PR436 CIRCOLO MINERVA ASD1h11:02
120391DORIGO Guglielmo1969SM45PN527 ATLETICA AVIANO1h11:13
121408LAZOVIC Sergio1962SM55PN528 ATLETICA EDILMARKET SANDRIN1h11:19
122450BISOL Oliviero1962SM55TV343 ATL.VALDOBBIADENE G.S.A.1h11:20
123399ZAMBON Paolo1977SM40PN527 ATLETICA AVIANO1h11:34
124468MONDIN Efrem1961SM55TV343 ATL.VALDOBBIADENE G.S.A.1h11:44
125351MASCARIN Marc1969SM45PN005 POLISPORTIVA MONTEREALE1h12:00
126375DONAT Dino1966SM50PN522 PODISTI CORDENONS1h12:10
127326FACCHINI Pietro Arturo1959SM55BS562 ATL. PARATICO1h12:13
128493SCOMPARIN Stefano1977SM40VE516 RUNNERS CLUB AGGGREDIRE1h12:18
129325ERLI Francesco1961SM55BS562 ATL. PARATICO1h12:31
130404BREDA Walter1968SM50PN528 ATLETICA EDILMARKET SANDRIN1h12:47
131483TOMASIN Luigino1964SM50TV402 AMICI DI LUTRANO1h13:04
132379MENEGATTI Mauro1964SM50PN522 PODISTI CORDENONS1h13:07
133370DEL RIZZO Carlo1974SM40PN502 ATL. SAN MARTINO COOP CASARSA1h13:10
134338RIONTINO Tommaso1972SM45BS562 ATL. PARATICO1h13:28
135424FULCINI Michele1968SM50PR436 CIRCOLO MINERVA ASD1h13:33
136463GERONAZZO Dario1959SM55TV343 ATL.VALDOBBIADENE G.S.A.1h13:39
137414TURCHETTO Silvano1961SM55PN528 ATLETICA EDILMARKET SANDRIN1h14:06
138405CIA Tiziano1962SM55PN528 ATLETICA EDILMARKET SANDRIN1h14:09
139439RIZZOLI Mauro1970SM45TN113 U.S.D. CERMIS1h14:12
140369CORAZZA Paolo1968SM50PN502 ATL. SAN MARTINO COOP CASARSA1h14:30
141311BAITELLI Angelo1960SM55BS562 ATL. PARATICO1h14:41
142423BUCCI Matteo1976SM40PR436 CIRCOLO MINERVA ASD1h14:49
143374DEL PUP Tonino1961SM55PN522 PODISTI CORDENONS1h15:07
144355D'ANIELLO Luca1975SM40PN028 POL. LIBERTAS PORCIA1h15:08
145489GUMIRATO Fabrizio1964SM50VE464 ATL.AUDACE NOALE1h15:35
146406DALL'AGNESE Denis1965SM50PN528 ATLETICA EDILMARKET SANDRIN1h16:12
147402BASSO Guido1973SM45PN528 ATLETICA EDILMARKET SANDRIN1h16:33
148425GORRERI Michele1977SM40PR436 CIRCOLO MINERVA ASD1h17:19
149469MONDIN Walter1964SM50TV343 ATL.VALDOBBIADENE G.S.A.1h17:48
150453BOSCHIERO Angelo1963SM55TV343 ATL.VALDOBBIADENE G.S.A.1h17:49
151486PICCO Fabiano1979SM35UD110 ATLETICA 20001h18:19
152445FRANCA Maurizio1963SM55TS007 G.S. SAN GIACOMO1h18:29
153349MAGRIS Enrico1976SM40PN005 POLISPORTIVA MONTEREALE1h18:33
154490BARS Francesco1961SM55VE499 MARATONETI ERACLEA1h18:41
155496PITAU Maurizio1959SM55PN005 POLISPORTIVA MONTEREALE1h18:53
156350MARCHIO' Giorgio1960SM55PN005 POLISPORTIVA MONTEREALE1h18:59
157365VARUZZA Moreno1971SM45PN500 G. P. LIVENZA SACILE1h19:03
158303PIERANI Giacomo1961SM55BS243 ATL. REBO GUSSAGO1h19:05
159383MASCARIN Franco1963SM55PN525 AZZANO RUNNERS1h19:09
160353ROSA Stefano1967SM50PN005 POLISPORTIVA MONTEREALE1h19:31
161302BONATI Tiziano1964SM50BS082 POLISPORTIVA G.B. VIGHENZI1h19:47
162396PIZZINAT Graziano1964SM50PN527 ATLETICA AVIANO1h19:47
163443POSTAL Tiziano1961SM55TN500 ATLETICA VALLE DI CEMBRA1h20:06
164382GERARDUZ Luciano1969SM45PN525 AZZANO RUNNERS1h20:21
165460FURLAN Gianluigi1960SM55TV343 ATL.VALDOBBIADENE G.S.A.1h20:43
166409PADOVAN Denis1973SM45PN528 ATLETICA EDILMARKET SANDRIN1h20:50
167384BERNARDIS Walter1975SM40PN527 ATLETICA AVIANO1h21:02
168478ZARDETTO Renzo1960SM55TV343 ATL.VALDOBBIADENE G.S.A.1h21:07
169290MARCHETTI Claudio1966SM50BO023 ATL. AVIS CASTEL S.PIETRO1h21:25
170464MARINO Giovanni1964SM50TV343 ATL.VALDOBBIADENE G.S.A.1h21:40
171397RIZZI Massimo1972SM45PN527 ATLETICA AVIANO1h22:17
172337RACCAGNI Lorenzo1977SM40BS562 ATL. PARATICO1h22:39
173380VIOLIN Stefano1972SM45PN522 PODISTI CORDENONS1h22:57
174436RUFFONI Giovanni1968SM50SO114 G.S. C.S.I. MORBEGNO1h22:59
175386BRUGNERA Renzo1963SM55PN527 ATLETICA AVIANO1h23:40
176474TORMENA Erik1976SM40TV343 ATL.VALDOBBIADENE G.S.A.1h23:47
177339TENGATTINI Ezio1961SM55BS562 ATL. PARATICO1h23:50
178356FASCINA Massimo1966SM50PN028 POL. LIBERTAS PORCIA1h23:50
179418MOATS Kyle Allen1983SM35PN534 ATL. LEONE SAN MARCO PORDENONE1h24:07
180491LONGO Giuseppe1959SM55VE499 MARATONETI ERACLEA1h24:24
181401BASSET Junior1972SM45PN528 ATLETICA EDILMARKET SANDRIN1h25:11
182488CAPPELLETTO Natalino1963SM55VE464 ATL.AUDACE NOALE1h26:23
183435CRIMELLA Luigi1964SM50SO114 G.S. C.S.I. MORBEGNO1h26:35
184385BIANCAT Michele1965SM50PN527 ATLETICA AVIANO1h27:43
185421FORNASIER Renzo1976SM40PN536 CHEI DALA MANDORLA - LESTANS1h28:24
186390DE LUCA Giorgio1962SM55PN527 ATLETICA AVIANO1h30:18
187359CORAZZA Dario1962SM55PN039 ATL BRUGNERA PN FRIULINTAGLI1h33:35
188492VENDRAME Stefano1963SM55VE499 MARATONETI ERACLEA1h36:22
189430MATTIOLI Fabrizio1969SM45PR436 CIRCOLO MINERVA ASD1h36:23
190361ARPIONI Domenico1963SM55PN500 G. P. LIVENZA SACILE1h41:57
 508COLAUTTI Alessio1988SMPN536 CHEI DALA MANDORLA - LESTANSRit
 514SINGH Sukhpreet1995SMPN039 ATL BRUGNERA PN FRIULINTAGLIRit
 479CASAGRANDE Fabrizio1964SM50TV385 GRUPPO SPORTIVO MERCURYUSRit
 467MIOTTO Mario1978SM40TV343 ATL.VALDOBBIADENE G.S.A.Rit
 366BIDOLI Giampaolo1966SM50PN502 ATL. SAN MARTINO COOP CASARSARit
 452BORTOLIN Enrico1967SM50TV343 ATL.VALDOBBIADENE G.S.A.Rit
 515ZOIA Mattia1990SMTV373 ATLETICA MOTTENSERit
 512MOROSO Paolo1967SM50RR999 RUNCARDRit
 504CANZI Giovanni1985SMPN522 PODISTI CORDENONSRit
 509COZZI Luca1985SMPN536 CHEI DALA MANDORLA - LESTANSRit
 510MARCUZZI Stefano1986SMPN536 CHEI DALA MANDORLA - LESTANSRit
 505PERUT Marco1986SMPN527 ATLETICA AVIANORit
 506RIZZO Mattia1985SMPN534 ATL. LEONE SAN MARCO PORDENONERit
 494ODORIZZI Alessio1972SM45MI884 CORRERE OLTRE ASDRit
 502DE BIASIO Tommaso1991SMPN005 POLISPORTIVA MONTEREALERit
 503GERHARD Davide1986SMPN502 ATL. SAN MARTINO COOP CASARSARit
 501DE BIASIO Giacomo1984SMPN005 POLISPORTIVA MONTEREALERit
 393FRATE Nicola1971SM45PN527 ATLETICA AVIANORit
 513ORZAN Federico1970SM45RR999 RUNCARDRit
SIGMA: Sistema di Gestione MAnifestazioni di Atletica Leggera - ProprietÓ: FIDAL - Realizzazione: AM-Linkweb